sensor_id;sensor_type;location;lat;lon;timestamp;pressure;altitude;pressure_sealevel;temperature;humidity
49342;BME280;35210;41.606;-87.602;2023-04-06T00:00:34;99423.22;;;11.51;62.84
49342;BME280;35210;41.606;-87.602;2023-04-06T00:03:03;99439.28;;;11.60;61.94
49342;BME280;35210;41.606;-87.602;2023-04-06T00:05:33;99450.97;;;11.57;62.05
49342;BME280;35210;41.606;-87.602;2023-04-06T00:08:01;99459.28;;;11.30;61.75
49342;BME280;35210;41.606;-87.602;2023-04-06T00:10:29;99453.91;;;11.20;63.29
49342;BME280;35210;41.606;-87.602;2023-04-06T00:12:58;99457.06;;;11.03;63.06
49342;BME280;35210;41.606;-87.602;2023-04-06T00:15:27;99469.66;;;10.89;63.35
49342;BME280;35210;41.606;-87.602;2023-04-06T00:18:14;99470.25;;;10.81;64.13
49342;BME280;35210;41.606;-87.602;2023-04-06T00:20:44;99482.84;;;10.77;63.79
49342;BME280;35210;41.606;-87.602;2023-04-06T00:23:13;99478.75;;;10.73;63.70
49342;BME280;35210;41.606;-87.602;2023-04-06T00:25:41;99484.63;;;10.66;63.66
49342;BME280;35210;41.606;-87.602;2023-04-06T00:28:09;99477.28;;;10.58;63.81
49342;BME280;35210;41.606;-87.602;2023-04-06T00:30:38;99486.56;;;10.64;63.98
49342;BME280;35210;41.606;-87.602;2023-04-06T00:33:06;99496.38;;;10.62;63.93
49342;BME280;35210;41.606;-87.602;2023-04-06T00:35:35;99506.72;;;10.65;64.69
49342;BME280;35210;41.606;-87.602;2023-04-06T00:38:04;99518.84;;;10.67;64.46
49342;BME280;35210;41.606;-87.602;2023-04-06T00:40:32;99512.88;;;10.41;64.20
49342;BME280;35210;41.606;-87.602;2023-04-06T00:43:01;99518.06;;;10.43;64.59
49342;BME280;35210;41.606;-87.602;2023-04-06T00:45:30;99521.06;;;10.49;64.48
49342;BME280;35210;41.606;-87.602;2023-04-06T00:47:58;99526.59;;;10.46;65.11
49342;BME280;35210;41.606;-87.602;2023-04-06T00:50:28;99540.06;;;10.54;64.59
49342;BME280;35210;41.606;-87.602;2023-04-06T00:52:56;99542.44;;;10.46;64.24
49342;BME280;35210;41.606;-87.602;2023-04-06T00:55:26;99540.75;;;10.45;63.73
49342;BME280;35210;41.606;-87.602;2023-04-06T00:57:54;99555.66;;;10.23;64.97
49342;BME280;35210;41.606;-87.602;2023-04-06T01:00:24;99559.91;;;10.12;65.67
49342;BME280;35210;41.606;-87.602;2023-04-06T01:02:53;99579.56;;;10.08;65.05
49342;BME280;35210;41.606;-87.602;2023-04-06T01:05:21;99580.03;;;9.89;64.72
49342;BME280;35210;41.606;-87.602;2023-04-06T01:07:50;99585.75;;;9.83;64.59
49342;BME280;35210;41.606;-87.602;2023-04-06T01:10:27;99601.56;;;9.83;61.28
49342;BME280;35210;41.606;-87.602;2023-04-06T01:12:56;99618.47;;;9.68;61.39
49342;BME280;35210;41.606;-87.602;2023-04-06T01:15:24;99628.22;;;9.55;62.19
49342;BME280;35210;41.606;-87.602;2023-04-06T01:17:53;99640.03;;;9.62;61.79
49342;BME280;35210;41.606;-87.602;2023-04-06T01:20:22;99651.63;;;9.47;59.66
49342;BME280;35210;41.606;-87.602;2023-04-06T01:22:51;99660.16;;;9.38;60.75
49342;BME280;35210;41.606;-87.602;2023-04-06T01:25:20;99673.56;;;9.35;60.38
49342;BME280;35210;41.606;-87.602;2023-04-06T01:27:48;99685.75;;;9.10;60.20
49342;BME280;35210;41.606;-87.602;2023-04-06T01:30:17;99698.41;;;9.18;60.84
49342;BME280;35210;41.606;-87.602;2023-04-06T01:32:45;99696.34;;;8.96;61.86
49342;BME280;35210;41.606;-87.602;2023-04-06T01:35:13;99708.59;;;9.10;61.94
49342;BME280;35210;41.606;-87.602;2023-04-06T01:37:41;99721.25;;;9.05;61.22
49342;BME280;35210;41.606;-87.602;2023-04-06T01:40:12;99725.53;;;8.93;61.07
49342;BME280;35210;41.606;-87.602;2023-04-06T01:42:40;99729.34;;;8.89;61.31
49342;BME280;35210;41.606;-87.602;2023-04-06T01:45:09;99732.06;;;9.00;61.36
49342;BME280;35210;41.606;-87.602;2023-04-06T01:47:38;99753.06;;;9.02;60.41
49342;BME280;35210;41.606;-87.602;2023-04-06T01:50:09;99769.25;;;8.96;60.56
49342;BME280;35210;41.606;-87.602;2023-04-06T01:52:37;99773.47;;;8.98;60.40
49342;BME280;35210;41.606;-87.602;2023-04-06T01:55:07;99784.84;;;8.86;59.73
49342;BME280;35210;41.606;-87.602;2023-04-06T01:57:37;99780.63;;;8.69;59.79
49342;BME280;35210;41.606;-87.602;2023-04-06T02:00:07;99784.22;;;8.68;60.12
49342;BME280;35210;41.606;-87.602;2023-04-06T02:02:37;99786.50;;;8.60;60.09
49342;BME280;35210;41.606;-87.602;2023-04-06T02:05:06;99794.88;;;8.52;59.61
49342;BME280;35210;41.606;-87.602;2023-04-06T02:07:35;99806.34;;;8.51;59.24
49342;BME280;35210;41.606;-87.602;2023-04-06T02:10:04;99821.19;;;8.52;59.29
49342;BME280;35210;41.606;-87.602;2023-04-06T02:12:32;99807.63;;;8.59;61.14
49342;BME280;35210;41.606;-87.602;2023-04-06T02:15:02;99812.81;;;8.60;59.41
49342;BME280;35210;41.606;-87.602;2023-04-06T02:17:30;99819.50;;;8.51;60.06
49342;BME280;35210;41.606;-87.602;2023-04-06T02:19:58;99827.94;;;8.56;59.49
49342;BME280;35210;41.606;-87.602;2023-04-06T02:22:26;99844.69;;;8.55;59.74
49342;BME280;35210;41.606;-87.602;2023-04-06T02:24:55;99843.94;;;8.53;59.96
49342;BME280;35210;41.606;-87.602;2023-04-06T02:27:23;99858.50;;;8.59;60.60
49342;BME280;35210;41.606;-87.602;2023-04-06T02:29:51;99866.31;;;8.61;60.19
49342;BME280;35210;41.606;-87.602;2023-04-06T02:32:21;99876.47;;;8.67;60.63
49342;BME280;35210;41.606;-87.602;2023-04-06T02:34:49;99867.16;;;8.61;60.66
49342;BME280;35210;41.606;-87.602;2023-04-06T02:37:17;99872.88;;;8.68;60.84
49342;BME280;35210;41.606;-87.602;2023-04-06T02:39:46;99877.75;;;8.74;60.74
49342;BME280;35210;41.606;-87.602;2023-04-06T02:42:16;99884.72;;;8.75;60.88
49342;BME280;35210;41.606;-87.602;2023-04-06T02:44:45;99889.59;;;8.81;60.87
49342;BME280;35210;41.606;-87.602;2023-04-06T02:47:13;99893.84;;;8.83;61.59
49342;BME280;35210;41.606;-87.602;2023-04-06T02:49:43;99901.25;;;8.91;60.70
49342;BME280;35210;41.606;-87.602;2023-04-06T02:52:11;99909.25;;;8.89;60.79
49342;BME280;35210;41.606;-87.602;2023-04-06T02:54:41;99907.25;;;8.93;61.10
49342;BME280;35210;41.606;-87.602;2023-04-06T02:57:09;99904.66;;;8.79;61.96
49342;BME280;35210;41.606;-87.602;2023-04-06T02:59:38;99914.25;;;8.80;62.42
49342;BME280;35210;41.606;-87.602;2023-04-06T03:02:06;99913.03;;;8.85;62.62
49342;BME280;35210;41.606;-87.602;2023-04-06T03:04:35;99913.69;;;8.89;62.18
49342;BME280;35210;41.606;-87.602;2023-04-06T03:07:05;99924.66;;;8.96;61.75
49342;BME280;35210;41.606;-87.602;2023-04-06T03:09:33;99929.25;;;8.92;60.86
49342;BME280;35210;41.606;-87.602;2023-04-06T03:12:01;99947.91;;;8.89;61.50
49342;BME280;35210;41.606;-87.602;2023-04-06T03:14:30;99945.28;;;8.89;61.69
49342;BME280;35210;41.606;-87.602;2023-04-06T03:16:58;99951.41;;;8.89;61.14
49342;BME280;35210;41.606;-87.602;2023-04-06T03:19:26;99947.06;;;8.74;60.51
49342;BME280;35210;41.606;-87.602;2023-04-06T03:21:55;99964.09;;;8.69;60.71
49342;BME280;35210;41.606;-87.602;2023-04-06T03:24:25;99972.56;;;8.74;61.07
49342;BME280;35210;41.606;-87.602;2023-04-06T03:26:54;99970.69;;;8.76;60.53
49342;BME280;35210;41.606;-87.602;2023-04-06T03:29:22;99981.78;;;8.81;60.46
49342;BME280;35210;41.606;-87.602;2023-04-06T03:31:50;99983.28;;;8.85;59.77
49342;BME280;35210;41.606;-87.602;2023-04-06T03:34:19;99981.19;;;8.76;60.18
49342;BME280;35210;41.606;-87.602;2023-04-06T03:36:47;99992.66;;;8.61;59.19
49342;BME280;35210;41.606;-87.602;2023-04-06T03:39:16;99994.16;;;8.65;60.42
49342;BME280;35210;41.606;-87.602;2023-04-06T03:41:45;100002.25;;;8.62;60.01
49342;BME280;35210;41.606;-87.602;2023-04-06T03:44:14;100002.34;;;8.60;60.35
49342;BME280;35210;41.606;-87.602;2023-04-06T03:46:42;100012.38;;;8.53;60.48
49342;BME280;35210;41.606;-87.602;2023-04-06T03:49:11;100008.44;;;8.61;60.31
49342;BME280;35210;41.606;-87.602;2023-04-06T03:51:39;100018.63;;;8.67;61.11
49342;BME280;35210;41.606;-87.602;2023-04-06T03:54:07;100020.97;;;8.71;60.09
49342;BME280;35210;41.606;-87.602;2023-04-06T03:56:36;100028.31;;;8.66;60.13
49342;BME280;35210;41.606;-87.602;2023-04-06T03:59:05;100038.34;;;8.60;60.04
49342;BME280;35210;41.606;-87.602;2023-04-06T04:01:34;100038.44;;;8.58;60.21
49342;BME280;35210;41.606;-87.602;2023-04-06T04:04:02;100048.66;;;8.48;60.55
49342;BME280;35210;41.606;-87.602;2023-04-06T04:06:30;100056.06;;;8.42;60.65
49342;BME280;35210;41.606;-87.602;2023-04-06T04:08:58;100055.41;;;8.38;60.47
49342;BME280;35210;41.606;-87.602;2023-04-06T04:11:27;100068.97;;;8.31;60.54
49342;BME280;35210;41.606;-87.602;2023-04-06T04:13:55;100062.75;;;8.32;60.69
49342;BME280;35210;41.606;-87.602;2023-04-06T04:16:25;100078.19;;;7.92;60.69
49342;BME280;35210;41.606;-87.602;2023-04-06T04:18:53;100069.38;;;8.09;61.04
49342;BME280;35210;41.606;-87.602;2023-04-06T04:21:21;100080.22;;;8.03;61.15
49342;BME280;35210;41.606;-87.602;2023-04-06T04:23:51;100072.16;;;8.06;61.22
49342;BME280;35210;41.606;-87.602;2023-04-06T04:26:20;100076.59;;;7.89;61.61
49342;BME280;35210;41.606;-87.602;2023-04-06T04:28:48;100085.41;;;7.88;61.33
49342;BME280;35210;41.606;-87.602;2023-04-06T04:31:16;100087.44;;;7.83;61.56
49342;BME280;35210;41.606;-87.602;2023-04-06T04:33:48;100084.97;;;7.80;62.12
49342;BME280;35210;41.606;-87.602;2023-04-06T04:36:16;100078.19;;;7.76;61.79
49342;BME280;35210;41.606;-87.602;2023-04-06T04:38:45;100075.56;;;7.76;61.83
49342;BME280;35210;41.606;-87.602;2023-04-06T04:41:13;100080.66;;;7.79;61.57
49342;BME280;35210;41.606;-87.602;2023-04-06T04:43:41;100082.69;;;7.74;62.24
49342;BME280;35210;41.606;-87.602;2023-04-06T04:46:10;100078.63;;;7.69;61.52
49342;BME280;35210;41.606;-87.602;2023-04-06T04:48:38;100081.81;;;7.58;62.07
49342;BME280;35210;41.606;-87.602;2023-04-06T04:51:09;100086.25;;;7.57;62.45
49342;BME280;35210;41.606;-87.602;2023-04-06T04:53:38;100090.56;;;7.58;62.06
49342;BME280;35210;41.606;-87.602;2023-04-06T04:56:06;100100.06;;;7.61;61.75
49342;BME280;35210;41.606;-87.602;2023-04-06T04:58:34;100099.38;;;7.57;61.81
49342;BME280;35210;41.606;-87.602;2023-04-06T05:01:02;100100.56;;;7.52;61.60
49342;BME280;35210;41.606;-87.602;2023-04-06T05:03:31;100096.22;;;7.51;62.30
49342;BME280;35210;41.606;-87.602;2023-04-06T05:06:00;100101.16;;;7.57;62.18
49342;BME280;35210;41.606;-87.602;2023-04-06T05:08:30;100097.31;;;7.47;62.35
49342;BME280;35210;41.606;-87.602;2023-04-06T05:10:59;100092.59;;;7.38;62.58
49342;BME280;35210;41.606;-87.602;2023-04-06T05:13:27;100098.66;;;7.22;63.27
49342;BME280;35210;41.606;-87.602;2023-04-06T05:15:56;100102.50;;;7.33;62.79
49342;BME280;35210;41.606;-87.602;2023-04-06T05:18:24;100104.81;;;7.39;62.39
49342;BME280;35210;41.606;-87.602;2023-04-06T05:20:53;100112.91;;;7.34;62.79
49342;BME280;35210;41.606;-87.602;2023-04-06T05:23:21;100104.81;;;7.39;61.58
49342;BME280;35210;41.606;-87.602;2023-04-06T05:25:51;100114.88;;;7.31;62.43
49342;BME280;35210;41.606;-87.602;2023-04-06T05:28:20;100122.75;;;7.31;61.94
49342;BME280;35210;41.606;-87.602;2023-04-06T05:30:48;100122.06;;;7.43;62.05
49342;BME280;35210;41.606;-87.602;2023-04-06T05:33:17;100115.16;;;7.42;61.83
49342;BME280;35210;41.606;-87.602;2023-04-06T05:35:45;100121.66;;;7.50;60.95
49342;BME280;35210;41.606;-87.602;2023-04-06T05:38:13;100114.63;;;7.51;60.97
49342;BME280;35210;41.606;-87.602;2023-04-06T05:40:41;100119.97;;;7.49;61.06
49342;BME280;35210;41.606;-87.602;2023-04-06T05:43:11;100127.75;;;7.51;61.02
49342;BME280;35210;41.606;-87.602;2023-04-06T05:45:40;100123.19;;;7.54;60.60
49342;BME280;35210;41.606;-87.602;2023-04-06T05:48:09;100143.44;;;7.52;60.56
49342;BME280;35210;41.606;-87.602;2023-04-06T05:50:37;100143.53;;;7.51;60.98
49342;BME280;35210;41.606;-87.602;2023-04-06T05:53:05;100140.41;;;7.60;60.44
49342;BME280;35210;41.606;-87.602;2023-04-06T05:55:34;100149.06;;;7.62;60.53
49342;BME280;35210;41.606;-87.602;2023-04-06T05:58:03;100147.97;;;7.66;59.74
49342;BME280;35210;41.606;-87.602;2023-04-06T06:00:33;100139.31;;;7.64;59.70
49342;BME280;35210;41.606;-87.602;2023-04-06T06:03:01;100135.03;;;7.46;60.29
49342;BME280;35210;41.606;-87.602;2023-04-06T06:05:32;100125.81;;;7.39;60.87
49342;BME280;35210;41.606;-87.602;2023-04-06T06:08:00;100125.81;;;7.39;60.23
49342;BME280;35210;41.606;-87.602;2023-04-06T06:10:29;100130.09;;;7.24;61.09
49342;BME280;35210;41.606;-87.602;2023-04-06T06:12:57;100133.41;;;7.28;61.55
49342;BME280;35210;41.606;-87.602;2023-04-06T06:15:26;100132.47;;;7.29;60.95
49342;BME280;35210;41.606;-87.602;2023-04-06T06:17:56;100117.66;;;7.28;60.32
49342;BME280;35210;41.606;-87.602;2023-04-06T06:20:25;100109.38;;;7.35;60.20
49342;BME280;35210;41.606;-87.602;2023-04-06T06:22:53;100110.00;;;7.23;61.01
49342;BME280;35210;41.606;-87.602;2023-04-06T06:25:22;100107.31;;;7.24;61.21
49342;BME280;35210;41.606;-87.602;2023-04-06T06:27:50;100115.25;;;7.23;61.10
49342;BME280;35210;41.606;-87.602;2023-04-06T06:30:18;100111.94;;;7.19;61.31
49342;BME280;35210;41.606;-87.602;2023-04-06T06:32:47;100116.50;;;7.16;60.88
49342;BME280;35210;41.606;-87.602;2023-04-06T06:35:16;100109.94;;;7.24;60.39
49342;BME280;35210;41.606;-87.602;2023-04-06T06:37:45;100103.91;;;7.22;60.33
49342;BME280;35210;41.606;-87.602;2023-04-06T06:40:13;100098.16;;;7.32;60.01
49342;BME280;35210;41.606;-87.602;2023-04-06T06:42:43;100097.59;;;7.09;59.76
49342;BME280;35210;41.606;-87.602;2023-04-06T06:45:11;100085.16;;;7.13;60.19
49342;BME280;35210;41.606;-87.602;2023-04-06T06:47:41;100083.63;;;7.09;59.57
49342;BME280;35210;41.606;-87.602;2023-04-06T06:50:09;100079.41;;;6.89;59.58
49342;BME280;35210;41.606;-87.602;2023-04-06T06:52:40;100080.72;;;6.80;59.93
49342;BME280;35210;41.606;-87.602;2023-04-06T06:55:10;100069.53;;;6.77;59.65
49342;BME280;35210;41.606;-87.602;2023-04-06T06:57:38;100080.75;;;6.46;59.51
49342;BME280;35210;41.606;-87.602;2023-04-06T07:00:09;100068.56;;;6.45;60.86
49342;BME280;35210;41.606;-87.602;2023-04-06T07:02:39;100078.16;;;6.10;60.57
49342;BME280;35210;41.606;-87.602;2023-04-06T07:05:08;100067.06;;;6.22;61.16
49342;BME280;35210;41.606;-87.602;2023-04-06T07:07:36;100065.22;;;6.24;60.52
49342;BME280;35210;41.606;-87.602;2023-04-06T07:10:09;100058.66;;;6.15;60.41
49342;BME280;35210;41.606;-87.602;2023-04-06T07:12:37;100051.00;;;6.11;60.63
49342;BME280;35210;41.606;-87.602;2023-04-06T07:15:07;100039.44;;;6.15;60.29
49342;BME280;35210;41.606;-87.602;2023-04-06T07:17:35;100044.25;;;6.24;60.49
49342;BME280;35210;41.606;-87.602;2023-04-06T07:20:04;100034.59;;;6.24;59.93
49342;BME280;35210;41.606;-87.602;2023-04-06T07:22:33;100036.13;;;6.29;59.63
49342;BME280;35210;41.606;-87.602;2023-04-06T07:25:02;100034.22;;;6.32;59.49
49342;BME280;35210;41.606;-87.602;2023-04-06T07:27:32;100023.25;;;6.24;58.97
49342;BME280;35210;41.606;-87.602;2023-04-06T07:30:02;100031.91;;;6.26;58.99
49342;BME280;35210;41.606;-87.602;2023-04-06T07:32:32;100039.75;;;6.26;59.62
49342;BME280;35210;41.606;-87.602;2023-04-06T07:35:01;100035.91;;;6.16;58.74
49342;BME280;35210;41.606;-87.602;2023-04-06T07:37:30;100036.97;;;6.12;59.20
49342;BME280;35210;41.606;-87.602;2023-04-06T07:39:58;100045.63;;;6.14;59.19
49342;BME280;35210;41.606;-87.602;2023-04-06T07:42:26;100047.09;;;6.19;59.31
49342;BME280;35210;41.606;-87.602;2023-04-06T07:44:58;100045.63;;;6.31;58.84
49342;BME280;35210;41.606;-87.602;2023-04-06T07:47:27;100052.72;;;6.29;57.51
49342;BME280;35210;41.606;-87.602;2023-04-06T07:49:57;100065.13;;;6.25;57.24
49342;BME280;35210;41.606;-87.602;2023-04-06T07:52:25;100068.59;;;6.09;57.81
49342;BME280;35210;41.606;-87.602;2023-04-06T07:54:53;100076.31;;;6.12;57.87
49342;BME280;35210;41.606;-87.602;2023-04-06T07:57:22;100090.47;;;6.08;57.53
49342;BME280;35210;41.606;-87.602;2023-04-06T07:59:50;100097.13;;;6.15;57.83
49342;BME280;35210;41.606;-87.602;2023-04-06T08:02:20;100104.22;;;6.13;57.17
49342;BME280;35210;41.606;-87.602;2023-04-06T08:04:49;100119.31;;;6.08;58.06
49342;BME280;35210;41.606;-87.602;2023-04-06T08:07:17;100107.44;;;6.01;57.97
49342;BME280;35210;41.606;-87.602;2023-04-06T08:09:45;100107.13;;;6.07;58.34
49342;BME280;35210;41.606;-87.602;2023-04-06T08:12:13;100118.09;;;6.15;57.84
49342;BME280;35210;41.606;-87.602;2023-04-06T08:14:42;100109.94;;;6.21;57.86
49342;BME280;35210;41.606;-87.602;2023-04-06T08:17:10;100107.19;;;6.24;57.68
49342;BME280;35210;41.606;-87.602;2023-04-06T08:19:42;100099.75;;;6.15;57.57
49342;BME280;35210;41.606;-87.602;2023-04-06T08:22:10;100111.94;;;6.16;57.73
49342;BME280;35210;41.606;-87.602;2023-04-06T08:24:39;100115.25;;;6.19;57.90
49342;BME280;35210;41.606;-87.602;2023-04-06T08:27:07;100127.16;;;6.26;57.52
49342;BME280;35210;41.606;-87.602;2023-04-06T08:29:35;100134.13;;;6.09;57.00
49342;BME280;35210;41.606;-87.602;2023-04-06T08:32:03;100143.06;;;6.05;57.41
49342;BME280;35210;41.606;-87.602;2023-04-06T08:34:32;100154.69;;;5.99;57.43
49342;BME280;35210;41.606;-87.602;2023-04-06T08:37:02;100145.63;;;5.87;56.27
49342;BME280;35210;41.606;-87.602;2023-04-06T08:39:31;100155.84;;;5.93;57.67
49342;BME280;35210;41.606;-87.602;2023-04-06T08:42:01;100150.38;;;5.98;57.24
49342;BME280;35210;41.606;-87.602;2023-04-06T08:44:30;100176.66;;;5.97;56.76
49342;BME280;35210;41.606;-87.602;2023-04-06T08:46:59;100175.50;;;5.83;56.04
49342;BME280;35210;41.606;-87.602;2023-04-06T08:49:28;100164.88;;;5.86;55.99
49342;BME280;35210;41.606;-87.602;2023-04-06T08:51:56;100176.06;;;5.71;54.64
49342;BME280;35210;41.606;-87.602;2023-04-06T08:54:26;100181.03;;;5.77;55.66
49342;BME280;35210;41.606;-87.602;2023-04-06T08:56:55;100192.44;;;5.76;55.06
49342;BME280;35210;41.606;-87.602;2023-04-06T08:59:25;100202.00;;;5.77;54.88
49342;BME280;35210;41.606;-87.602;2023-04-06T09:01:54;100203.84;;;5.75;54.85
49342;BME280;35210;41.606;-87.602;2023-04-06T09:04:23;100192.19;;;5.62;54.60
49342;BME280;35210;41.606;-87.602;2023-04-06T09:06:52;100198.44;;;5.59;54.63
49342;BME280;35210;41.606;-87.602;2023-04-06T09:09:20;100212.38;;;5.60;54.60
49342;BME280;35210;41.606;-87.602;2023-04-06T09:11:53;100216.56;;;5.64;55.60
49342;BME280;35210;41.606;-87.602;2023-04-06T09:14:34;100226.13;;;5.65;55.50
49342;BME280;35210;41.606;-87.602;2023-04-06T09:17:03;100223.22;;;5.71;54.66
49342;BME280;35210;41.606;-87.602;2023-04-06T09:19:32;100236.47;;;5.68;55.60
49342;BME280;35210;41.606;-87.602;2023-04-06T09:22:04;100223.94;;;5.75;54.57
49342;BME280;35210;41.606;-87.602;2023-04-06T09:24:43;100222.97;;;5.77;54.32
49342;BME280;35210;41.606;-87.602;2023-04-06T09:27:14;100230.03;;;5.75;54.82
49342;BME280;35210;41.606;-87.602;2023-04-06T09:29:42;100229.19;;;5.75;54.56
49342;BME280;35210;41.606;-87.602;2023-04-06T09:32:11;100237.38;;;5.67;54.95
49342;BME280;35210;41.606;-87.602;2023-04-06T09:34:42;100238.19;;;5.49;54.88
49342;BME280;35210;41.606;-87.602;2023-04-06T09:37:15;100236.34;;;5.51;56.04
49342;BME280;35210;41.606;-87.602;2023-04-06T09:39:44;100237.34;;;5.48;55.59
49342;BME280;35210;41.606;-87.602;2023-04-06T09:42:25;100257.19;;;5.54;55.17
49342;BME280;35210;41.606;-87.602;2023-04-06T09:44:54;100259.66;;;5.57;54.15
49342;BME280;35210;41.606;-87.602;2023-04-06T09:47:23;100256.91;;;5.60;53.50
49342;BME280;35210;41.606;-87.602;2023-04-06T09:49:55;100264.31;;;5.50;53.76
49342;BME280;35210;41.606;-87.602;2023-04-06T09:52:26;100266.88;;;5.52;52.68
49342;BME280;35210;41.606;-87.602;2023-04-06T09:54:58;100272.63;;;5.40;52.14
49342;BME280;35210;41.606;-87.602;2023-04-06T09:57:32;100275.75;;;5.27;52.02
49342;BME280;35210;41.606;-87.602;2023-04-06T10:00:05;100272.03;;;5.33;52.04
49342;BME280;35210;41.606;-87.602;2023-04-06T10:02:44;100279.91;;;5.33;51.42
49342;BME280;35210;41.606;-87.602;2023-04-06T10:05:19;100296.72;;;5.27;51.05
49342;BME280;35210;41.606;-87.602;2023-04-06T10:07:51;100317.16;;;5.19;52.10
49342;BME280;35210;41.606;-87.602;2023-04-06T10:10:20;100315.22;;;5.23;52.39
49342;BME280;35210;41.606;-87.602;2023-04-06T10:12:51;100322.03;;;5.27;52.42
49342;BME280;35210;41.606;-87.602;2023-04-06T10:15:19;100327.88;;;5.34;53.90
49342;BME280;35210;41.606;-87.602;2023-04-06T10:17:47;100346.75;;;5.42;54.05
49342;BME280;35210;41.606;-87.602;2023-04-06T10:20:21;100351.03;;;5.44;54.22
49342;BME280;35210;41.606;-87.602;2023-04-06T10:22:56;100365.50;;;5.53;54.70
49342;BME280;35210;41.606;-87.602;2023-04-06T10:25:28;100374.88;;;5.58;55.36
49342;BME280;35210;41.606;-87.602;2023-04-06T10:28:02;100365.06;;;5.64;55.35
49342;BME280;35210;41.606;-87.602;2023-04-06T10:30:33;100366.94;;;5.60;56.09
49342;BME280;35210;41.606;-87.602;2023-04-06T10:33:12;100368.66;;;5.61;56.05
49342;BME280;35210;41.606;-87.602;2023-04-06T10:35:40;100378.03;;;5.67;55.72
49342;BME280;35210;41.606;-87.602;2023-04-06T10:38:08;100382.81;;;5.57;55.60
49342;BME280;35210;41.606;-87.602;2023-04-06T10:40:38;100394.84;;;5.61;54.57
49342;BME280;35210;41.606;-87.602;2023-04-06T10:43:10;100395.41;;;5.47;53.19
49342;BME280;35210;41.606;-87.602;2023-04-06T10:45:39;100408.75;;;5.41;53.21
49342;BME280;35210;41.606;-87.602;2023-04-06T10:48:16;100397.63;;;5.36;52.67
49342;BME280;35210;41.606;-87.602;2023-04-06T10:50:46;100405.78;;;5.28;52.42
49342;BME280;35210;41.606;-87.602;2023-04-06T10:53:21;100408.53;;;5.25;52.25
49342;BME280;35210;41.606;-87.602;2023-04-06T10:55:50;100414.50;;;5.07;53.65
49342;BME280;35210;41.606;-87.602;2023-04-06T10:58:23;100434.09;;;4.97;54.13
49342;BME280;35210;41.606;-87.602;2023-04-06T11:00:52;100440.34;;;4.93;54.83
49342;BME280;35210;41.606;-87.602;2023-04-06T11:03:21;100441.88;;;4.99;54.00
49342;BME280;35210;41.606;-87.602;2023-04-06T11:05:50;100440.47;;;4.90;54.53
49342;BME280;35210;41.606;-87.602;2023-04-06T11:08:26;100449.19;;;4.90;54.45
49342;BME280;35210;41.606;-87.602;2023-04-06T11:11:05;100438.47;;;4.97;54.84
49342;BME280;35210;41.606;-87.602;2023-04-06T11:13:41;100437.34;;;5.04;55.51
49342;BME280;35210;41.606;-87.602;2023-04-06T11:16:13;100438.06;;;5.07;56.25
49342;BME280;35210;41.606;-87.602;2023-04-06T11:18:49;100447.41;;;5.14;56.55
49342;BME280;35210;41.606;-87.602;2023-04-06T11:21:18;100449.97;;;5.16;57.58
49342;BME280;35210;41.606;-87.602;2023-04-06T11:23:46;100439.28;;;5.20;57.62
49342;BME280;35210;41.606;-87.602;2023-04-06T11:26:15;100442.91;;;5.18;57.55
49342;BME280;35210;41.606;-87.602;2023-04-06T11:28:44;100439.47;;;5.16;58.12
49342;BME280;35210;41.606;-87.602;2023-04-06T11:31:13;100449.22;;;5.12;57.78
49342;BME280;35210;41.606;-87.602;2023-04-06T11:33:41;100451.91;;;5.11;57.60
49342;BME280;35210;41.606;-87.602;2023-04-06T11:36:09;100463.34;;;5.08;57.27
49342;BME280;35210;41.606;-87.602;2023-04-06T11:38:39;100458.38;;;5.01;58.23
49342;BME280;35210;41.606;-87.602;2023-04-06T11:41:07;100473.06;;;5.05;57.20
49342;BME280;35210;41.606;-87.602;2023-04-06T11:43:36;100481.94;;;5.01;57.47
49342;BME280;35210;41.606;-87.602;2023-04-06T11:46:06;100497.66;;;5.01;57.87
49342;BME280;35210;41.606;-87.602;2023-04-06T11:48:44;100509.09;;;4.98;56.45
49342;BME280;35210;41.606;-87.602;2023-04-06T11:51:12;100520.41;;;4.99;56.41
49342;BME280;35210;41.606;-87.602;2023-04-06T11:53:49;100526.84;;;4.90;56.72
49342;BME280;35210;41.606;-87.602;2023-04-06T11:56:25;100531.22;;;4.89;56.60
49342;BME280;35210;41.606;-87.602;2023-04-06T11:58:55;100518.31;;;4.85;56.83
49342;BME280;35210;41.606;-87.602;2023-04-06T12:01:26;100534.09;;;4.82;57.12
49342;BME280;35210;41.606;-87.602;2023-04-06T12:03:54;100543.78;;;4.80;57.42
49342;BME280;35210;41.606;-87.602;2023-04-06T12:06:23;100538.44;;;4.83;57.35
49342;BME280;35210;41.606;-87.602;2023-04-06T12:08:51;100533.09;;;4.86;57.02
49342;BME280;35210;41.606;-87.602;2023-04-06T12:11:20;100540.16;;;4.84;57.29
49342;BME280;35210;41.606;-87.602;2023-04-06T12:13:48;100556.69;;;4.84;57.97
49342;BME280;35210;41.606;-87.602;2023-04-06T12:16:16;100554.72;;;4.91;58.13
49342;BME280;35210;41.606;-87.602;2023-04-06T12:18:47;100565.06;;;4.94;57.77
49342;BME280;35210;41.606;-87.602;2023-04-06T12:21:15;100568.59;;;4.93;57.33
49342;BME280;35210;41.606;-87.602;2023-04-06T12:23:43;100591.16;;;4.97;57.34
49342;BME280;35210;41.606;-87.602;2023-04-06T12:26:12;100595.53;;;4.97;57.59
49342;BME280;35210;41.606;-87.602;2023-04-06T12:28:40;100604.38;;;4.92;57.96
49342;BME280;35210;41.606;-87.602;2023-04-06T12:31:15;100611.44;;;4.90;58.06
49342;BME280;35210;41.606;-87.602;2023-04-06T12:33:48;100608.78;;;4.92;57.60
49342;BME280;35210;41.606;-87.602;2023-04-06T12:36:18;100601.66;;;4.95;57.60
49342;BME280;35210;41.606;-87.602;2023-04-06T12:38:47;100591.25;;;4.94;57.95
49342;BME280;35210;41.606;-87.602;2023-04-06T12:41:17;100591.78;;;4.79;57.50
49342;BME280;35210;41.606;-87.602;2023-04-06T12:43:45;100601.25;;;4.83;57.38
49342;BME280;35210;41.606;-87.602;2023-04-06T12:46:13;100609.94;;;4.83;58.76
49342;BME280;35210;41.606;-87.602;2023-04-06T12:48:42;100616.13;;;4.81;58.06
49342;BME280;35210;41.606;-87.602;2023-04-06T12:51:11;100635.56;;;4.74;58.79
49342;BME280;35210;41.606;-87.602;2023-04-06T12:53:40;100628.53;;;4.76;57.97